Time;durP1;ratioP1;P1;durP2;ratioP2;P2;SDS_P1;SDS_P2;PMS_P1;PMS_P2;Temp;Humidity;BMP_temperature;BMP_pressure;BME280_temperature;BME280_humidity;BME280_pressure;Samples;Min_cycle;Max_cycle;Signal;HPM_P1;HPM_P2
2022/10/11 00:02:22;;;;;;;1.20;1.10;;;23.30;96.80;;;;;;5125548;27;20451;-66
2022/10/11 00:04:57;;;;;;;1.23;1.13;;;23.30;97.10;;;;;;5129919;27;20462;-66
2022/10/11 00:07:27;;;;;;;1.40;1.20;;;23.20;97.80;;;;;;5125136;27;20485;-66
2022/10/11 00:09:58;;;;;;;1.10;0.90;;;23.20;97.80;;;;;;5132432;27;20444;-67
2022/10/11 00:12:29;;;;;;;1.10;1.00;;;23.20;98.20;;;;;;5120067;27;20468;-68
2022/10/11 00:15:00;;;;;;;0.97;0.97;;;23.20;98.20;;;;;;5116523;27;20546;-67
2022/10/11 00:17:32;;;;;;;1.40;1.30;;;23.00;98.50;;;;;;5129482;27;20507;-67
2022/10/11 00:20:04;;;;;;;1.63;1.17;;;23.00;98.80;;;;;;5131480;27;20457;-68
2022/10/11 00:22:36;;;;;;;1.80;1.30;;;23.00;99.20;;;;;;5143588;27;20453;-67
2022/10/11 00:25:09;;;;;;;1.53;1.43;;;22.90;99.30;;;;;;5129715;27;20453;-67
2022/10/11 00:27:40;;;;;;;1.20;1.10;;;22.90;99.70;;;;;;5120350;27;20464;-68
2022/10/11 00:30:11;;;;;;;1.10;1.00;;;22.80;99.80;;;;;;5137784;27;20449;-68
2022/10/11 00:32:42;;;;;;;1.60;1.30;;;22.70;99.90;;;;;;5133546;27;20507;-67
2022/10/11 00:35:14;;;;;;;0.97;0.90;;;22.60;99.90;;;;;;5137310;27;20484;-67
2022/10/11 00:37:45;;;;;;;1.30;1.20;;;22.50;99.90;;;;;;5133219;27;20479;-67
2022/10/11 00:40:19;;;;;;;1.00;0.97;;;22.50;99.90;;;;;;5138482;27;20999;-67
2022/10/11 00:42:49;;;;;;;0.87;0.70;;;22.30;99.90;;;;;;5127299;27;20461;-67
2022/10/11 00:45:53;;;;;;;0.80;0.80;;;22.20;99.90;;;;;;5140414;27;20457;-67
2022/10/11 00:48:27;;;;;;;1.20;1.10;;;22.20;99.90;;;;;;5112547;27;20448;-68
2022/10/11 00:51:02;;;;;;;1.50;0.87;;;22.10;99.90;;;;;;5133084;27;20457;-67
2022/10/11 00:53:34;;;;;;;1.13;1.03;;;22.10;99.90;;;;;;5123493;27;20557;-67
2022/10/11 00:56:10;;;;;;;1.30;1.03;;;22.10;99.90;;;;;;5138689;27;20536;-68
2022/10/11 00:58:43;;;;;;;1.17;0.90;;;22.10;99.90;;;;;;5114332;27;20465;-67
2022/10/11 01:01:14;;;;;;;2.67;0.80;;;22.00;99.90;;;;;;5131432;27;20984;-66
2022/10/11 01:03:46;;;;;;;0.80;0.80;;;22.00;99.90;;;;;;5137365;27;20970;-67
2022/10/11 01:06:18;;;;;;;0.80;0.80;;;21.90;99.90;;;;;;5133209;27;20456;-67
2022/10/11 01:08:49;;;;;;;1.30;1.20;;;21.80;99.90;;;;;;5125364;27;20533;-66
2022/10/11 01:11:22;;;;;;;0.90;0.77;;;21.70;99.90;;;;;;5131800;27;20769;-66
2022/10/11 01:14:11;;;;;;;0.63;0.63;;;21.70;99.90;;;;;;5133482;27;20529;-68
2022/10/11 01:16:48;;;;;;;1.00;0.73;;;21.70;99.90;;;;;;5123665;27;20457;-67
2022/10/11 01:19:35;;;;;;;0.93;0.90;;;21.60;99.90;;;;;;5129186;27;20524;-68
2022/10/11 01:22:22;;;;;;;0.80;0.77;;;21.40;99.90;;;;;;5131679;27;20441;-68
2022/10/11 01:25:06;;;;;;;1.63;1.47;;;21.30;99.90;;;;;;5124264;27;20492;-66
2022/10/11 01:27:49;;;;;;;1.33;0.80;;;21.20;99.90;;;;;;5108209;28;20454;-68
2022/10/11 01:30:29;;;;;;;1.43;1.17;;;21.10;99.90;;;;;;5117774;27;20501;-67
2022/10/11 01:33:21;;;;;;;1.10;1.00;;;21.00;99.90;;;;;;5129335;27;20456;-68
2022/10/11 01:36:01;;;;;;;0.90;0.90;;;21.00;99.90;;;;;;5129979;27;20459;-68
2022/10/11 01:38:39;;;;;;;1.07;1.00;;;21.00;99.90;;;;;;5110305;27;20515;-68
2022/10/11 01:41:13;;;;;;;1.20;0.80;;;21.00;99.90;;;;;;5127678;27;20509;-67
2022/10/11 01:43:44;;;;;;;0.67;0.67;;;20.90;99.90;;;;;;5148528;27;20520;-68
2022/10/11 01:46:18;;;;;;;0.97;0.97;;;20.90;99.90;;;;;;5120868;27;20545;-66
2022/10/11 01:48:50;;;;;;;0.70;0.70;;;20.90;99.90;;;;;;5129107;27;20461;-66
2022/10/11 01:51:22;;;;;;;0.60;0.60;;;20.80;99.90;;;;;;5120445;27;20474;-66
2022/10/11 01:54:15;;;;;;;1.10;1.00;;;20.80;99.90;;;;;;5146159;27;20556;-67
2022/10/11 01:57:18;;;;;;;1.20;1.10;;;20.80;99.90;;;;;;5131351;27;20456;-66
2022/10/11 02:00:00;;;;;;;0.70;0.70;;;20.70;99.90;;;;;;5108086;28;20783;-70
2022/10/11 02:02:47;;;;;;;0.73;0.63;;;20.60;99.90;;;;;;5137931;27;20816;-67
2022/10/11 02:05:26;;;;;;;0.97;0.90;;;20.50;99.90;;;;;;5146839;27;20819;-67
2022/10/11 02:08:03;;;;;;;0.80;0.80;;;20.40;99.90;;;;;;5148871;27;20450;-67
2022/10/11 02:10:40;;;;;;;0.90;0.90;;;20.30;99.90;;;;;;5138961;27;20427;-68
2022/10/11 02:13:19;;;;;;;0.77;0.77;;;20.30;99.90;;;;;;5139665;27;20456;-67
2022/10/11 02:15:52;;;;;;;1.03;0.93;;;20.30;99.90;;;;;;5148452;27;20454;-67
2022/10/11 02:18:30;;;;;;;4.23;0.80;;;20.20;99.90;;;;;;5131856;27;20519;-68
2022/10/11 02:21:04;;;;;;;0.83;0.70;;;20.10;99.90;;;;;;5140623;27;20439;-67
2022/10/11 02:23:37;;;;;;;0.53;0.53;;;20.10;99.90;;;;;;5142805;27;20427;-66
2022/10/11 02:26:09;;;;;;;0.90;0.70;;;20.10;99.90;;;;;;5132377;27;20450;-67
2022/10/11 02:28:42;;;;;;;0.67;0.47;;;20.20;99.90;;;;;;5148306;27;20555;-67
2022/10/11 02:31:18;;;;;;;1.13;0.50;;;20.20;99.90;;;;;;5140687;27;20517;-67
2022/10/11 02:33:57;;;;;;;1.33;0.60;;;20.10;99.90;;;;;;5143775;27;20691;-66
2022/10/11 02:36:36;;;;;;;0.50;0.40;;;20.10;99.90;;;;;;5136906;27;20420;-67
2022/10/11 02:39:12;;;;;;;0.80;0.70;;;20.10;99.90;;;;;;5132553;27;20502;-65
2022/10/11 02:41:43;;;;;;;0.97;0.50;;;20.10;99.90;;;;;;5128203;27;20419;-65
2022/10/11 02:44:20;;;;;;;0.60;0.40;;;20.10;99.90;;;;;;5143300;27;20957;-65
2022/10/11 02:46:52;;;;;;;0.60;0.40;;;20.10;99.90;;;;;;5128829;27;20435;-65
2022/10/11 02:49:25;;;;;;;0.40;0.40;;;20.10;99.90;;;;;;5142410;27;20425;-65
2022/10/11 02:51:57;;;;;;;0.40;0.40;;;20.00;99.90;;;;;;5145098;27;20456;-64
2022/10/11 02:54:28;;;;;;;0.40;0.37;;;20.00;99.90;;;;;;5137440;27;20459;-65
2022/10/11 02:56:59;;;;;;;0.40;0.30;;;20.00;99.90;;;;;;5136406;27;20423;-66
2022/10/11 02:59:29;;;;;;;0.40;0.40;;;20.00;99.90;;;;;;5133984;27;20465;-66
2022/10/11 03:02:00;;;;;;;0.50;0.40;;;19.90;99.90;;;;;;5120129;27;20453;-66
2022/10/11 03:04:33;;;;;;;0.60;0.47;;;20.00;99.90;;;;;;5142580;27;20572;-67
2022/10/11 03:07:04;;;;;;;0.70;0.30;;;20.00;99.90;;;;;;5138211;27;20872;-65
2022/10/11 03:09:35;;;;;;;2.10;0.50;;;19.90;99.90;;;;;;5140391;27;20842;-66
2022/10/11 03:12:06;;;;;;;0.77;0.33;;;19.70;99.90;;;;;;5121555;27;20938;-65
2022/10/11 03:14:36;;;;;;;0.77;0.30;;;19.70;99.90;;;;;;5132093;27;20432;-65
2022/10/11 03:17:07;;;;;;;0.73;0.60;;;19.60;99.90;;;;;;5135558;27;20501;-65
2022/10/11 03:20:00;;;;;;;0.40;0.37;;;19.50;99.90;;;;;;5133295;27;20448;-64
2022/10/11 03:22:30;;;;;;;0.60;0.27;;;19.40;99.90;;;;;;5128182;27;20439;-65
2022/10/11 03:25:01;;;;;;;0.50;0.20;;;19.30;99.90;;;;;;5135840;27;20514;-66
2022/10/11 03:27:34;;;;;;;0.40;0.40;;;19.30;99.90;;;;;;5120836;27;20428;-65
2022/10/11 03:30:05;;;;;;;0.30;0.20;;;19.10;99.90;;;;;;5133100;27;20430;-64
2022/10/11 03:32:36;;;;;;;0.60;0.50;;;19.00;99.90;;;;;;5137164;27;20522;-64
2022/10/11 03:35:09;;;;;;;0.40;0.37;;;18.90;99.90;;;;;;5137123;27;20786;-64
2022/10/11 03:37:40;;;;;;;0.60;0.30;;;18.80;99.90;;;;;;5144128;27;20419;-64
2022/10/11 03:40:12;;;;;;;1.60;0.40;;;18.80;99.90;;;;;;5133581;27;20491;-64
2022/10/11 03:42:43;;;;;;;0.50;0.30;;;18.70;99.90;;;;;;5143254;27;20517;-64
2022/10/11 03:45:14;;;;;;;0.40;0.20;;;18.70;99.90;;;;;;5128835;27;20497;-63
2022/10/11 03:47:45;;;;;;;0.50;0.30;;;18.50;99.90;;;;;;5112242;27;20512;-64
2022/10/11 03:50:17;;;;;;;0.40;0.30;;;18.50;99.90;;;;;;5128994;27;20439;-63
2022/10/11 03:52:48;;;;;;;0.43;0.30;;;18.40;99.90;;;;;;5137312;27;20454;-63
2022/10/11 03:55:19;;;;;;;0.50;0.20;;;18.30;99.90;;;;;;5124019;27;20511;-63
2022/10/11 03:57:51;;;;;;;0.40;0.20;;;18.30;99.90;;;;;;5120675;27;20454;-65
2022/10/11 04:00:22;;;;;;;0.40;0.20;;;18.40;99.90;;;;;;5112093;27;20809;-62
2022/10/11 04:02:52;;;;;;;0.40;0.23;;;18.40;99.90;;;;;;5129975;27;20482;-62
2022/10/11 04:05:25;;;;;;;1.40;1.03;;;18.50;99.90;;;;;;5134239;27;20444;-63
2022/10/11 04:07:56;;;;;;;0.40;0.30;;;18.50;99.90;;;;;;5109743;27;20528;-63
2022/10/11 04:10:26;;;;;;;0.60;0.30;;;18.50;99.90;;;;;;5108886;27;20446;-63
2022/10/11 04:12:57;;;;;;;0.67;0.40;;;18.40;99.90;;;;;;5130026;27;20469;-63
2022/10/11 04:15:28;;;;;;;0.40;0.30;;;18.30;99.90;;;;;;5114929;27;20535;-62
2022/10/11 04:17:59;;;;;;;0.70;0.47;;;18.20;99.90;;;;;;5116339;27;20457;-62
2022/10/11 04:20:31;;;;;;;0.50;0.50;;;18.30;99.90;;;;;;5107380;27;20486;-64
2022/10/11 04:23:02;;;;;;;0.60;0.40;;;18.20;99.90;;;;;;5110287;27;20420;-63
2022/10/11 04:25:33;;;;;;;0.60;0.40;;;18.20;99.90;;;;;;5116601;27;20827;-62
2022/10/11 04:28:03;;;;;;;0.70;0.50;;;18.30;99.90;;;;;;5110194;27;20528;-62
2022/10/11 04:30:34;;;;;;;0.40;0.30;;;18.30;99.90;;;;;;5114663;27;20431;-63
2022/10/11 04:33:05;;;;;;;0.43;0.40;;;18.30;99.90;;;;;;5131983;27;20468;-62
2022/10/11 04:35:37;;;;;;;1.77;0.40;;;18.30;99.90;;;;;;5112134;27;20516;-63
2022/10/11 04:38:09;;;;;;;0.50;0.50;;;18.30;99.90;;;;;;5115355;27;20511;-63
2022/10/11 04:40:40;;;;;;;0.80;0.50;;;18.10;99.90;;;;;;5133939;27;20838;-63
2022/10/11 04:43:11;;;;;;;0.40;0.30;;;18.00;99.90;;;;;;5125986;27;20450;-63
2022/10/11 04:45:42;;;;;;;0.40;0.20;;;18.00;99.90;;;;;;5125563;27;20501;-63
2022/10/11 04:48:12;;;;;;;0.60;0.47;;;17.90;99.90;;;;;;5125248;27;20433;-63
2022/10/11 04:50:46;;;;;;;0.83;0.50;;;17.90;99.90;;;;;;5122366;27;20482;-63
2022/10/11 04:53:17;;;;;;;0.70;0.30;;;17.80;99.90;;;;;;5120017;27;20458;-63
2022/10/11 04:55:59;;;;;;;0.60;0.40;;;17.60;99.90;;;;;;5119050;27;20473;-64
2022/10/11 04:58:32;;;;;;;0.40;0.40;;;17.60;99.90;;;;;;5112550;27;20530;-64
2022/10/11 05:01:03;;;;;;;0.43;0.40;;;17.50;99.90;;;;;;5118632;27;20494;-63
2022/10/11 05:03:34;;;;;;;0.60;0.50;;;17.40;99.90;;;;;;5120906;27;20466;-62
2022/10/11 05:06:07;;;;;;;0.50;0.50;;;17.30;99.90;;;;;;5123573;27;20415;-62
2022/10/11 05:08:38;;;;;;;0.60;0.40;;;17.30;99.90;;;;;;5127620;27;20423;-62
2022/10/11 05:11:13;;;;;;;0.80;0.50;;;17.20;99.90;;;;;;5122867;27;20466;-63
2022/10/11 05:13:46;;;;;;;0.67;0.63;;;17.30;99.90;;;;;;5126746;27;20939;-63
2022/10/11 05:16:17;;;;;;;0.77;0.57;;;17.40;99.90;;;;;;5119669;27;20494;-63
2022/10/11 05:18:48;;;;;;;0.60;0.50;;;17.40;99.90;;;;;;5121443;27;20466;-63
2022/10/11 05:21:22;;;;;;;0.70;0.60;;;17.50;99.90;;;;;;5133624;28;20457;-63
2022/10/11 05:23:54;;;;;;;0.67;0.40;;;17.60;99.90;;;;;;5108595;27;20428;-63
2022/10/11 05:26:27;;;;;;;0.90;0.80;;;17.60;99.90;;;;;;5132838;28;20433;-64
2022/10/11 05:28:58;;;;;;;0.60;0.50;;;17.70;99.90;;;;;;5134258;28;21196;-63
2022/10/11 05:31:29;;;;;;;1.53;0.50;;;17.80;99.90;;;;;;5118943;28;20424;-63
2022/10/11 05:34:00;;;;;;;1.30;0.50;;;17.80;99.90;;;;;;5120681;28;20544;-63
2022/10/11 05:36:32;;;;;;;0.50;0.50;;;17.80;99.90;;;;;;5115596;28;20938;-63
2022/10/11 05:39:03;;;;;;;0.60;0.50;;;17.90;99.90;;;;;;5123383;27;20518;-64
2022/10/11 05:41:34;;;;;;;0.57;0.57;;;17.90;99.90;;;;;;5124095;28;20452;-64
2022/10/11 05:44:05;;;;;;;0.63;0.60;;;17.90;99.90;;;;;;5128454;28;20457;-63
2022/10/11 05:46:35;;;;;;;0.60;0.60;;;17.80;99.90;;;;;;5112677;28;20516;-63
2022/10/11 05:49:07;;;;;;;0.60;0.60;;;17.90;99.90;;;;;;5127736;27;20427;-63
2022/10/11 05:51:39;;;;;;;0.50;0.50;;;17.90;99.90;;;;;;5133832;27;20792;-63
2022/10/11 05:54:12;;;;;;;0.50;0.50;;;17.90;99.90;;;;;;5142420;27;20475;-63
2022/10/11 05:56:43;;;;;;;0.57;0.50;;;17.80;99.90;;;;;;5142126;27;20846;-65
2022/10/11 05:59:14;;;;;;;1.17;0.60;;;17.80;99.90;;;;;;5123367;27;20428;-64
2022/10/11 06:01:45;;;;;;;0.50;0.40;;;17.80;99.90;;;;;;5125336;28;20461;-64
2022/10/11 06:04:17;;;;;;;0.57;0.50;;;17.80;99.90;;;;;;5106604;28;20512;-64
2022/10/11 06:06:50;;;;;;;1.27;0.73;;;17.70;99.90;;;;;;5139525;27;20447;-63
2022/10/11 06:09:21;;;;;;;1.00;0.77;;;17.70;99.90;;;;;;5139549;27;20513;-63
2022/10/11 06:11:51;;;;;;;0.60;0.60;;;17.60;99.90;;;;;;5145119;27;20437;-63
2022/10/11 06:14:22;;;;;;;0.87;0.70;;;17.50;99.90;;;;;;5145790;27;20513;-63
2022/10/11 06:16:53;;;;;;;1.10;0.70;;;17.30;99.90;;;;;;5145874;27;20579;-63
2022/10/11 06:19:24;;;;;;;0.80;0.60;;;17.30;99.90;;;;;;5144653;27;20449;-63
2022/10/11 06:21:56;;;;;;;0.80;0.50;;;17.20;99.90;;;;;;5145930;27;20456;-63
2022/10/11 06:24:27;;;;;;;0.57;0.50;;;17.10;99.90;;;;;;5145786;27;20452;-63
2022/10/11 06:26:58;;;;;;;0.50;0.50;;;17.00;99.90;;;;;;5137800;27;20509;-63
2022/10/11 06:29:29;;;;;;;0.60;0.53;;;16.90;99.90;;;;;;5133643;27;20517;-63
2022/10/11 06:31:59;;;;;;;0.70;0.53;;;16.80;99.90;;;;;;5135627;27;20449;-63
2022/10/11 06:34:30;;;;;;;1.23;0.47;;;16.80;99.90;;;;;;5132191;27;20466;-63
2022/10/11 06:37:03;;;;;;;0.70;0.50;;;16.80;99.90;;;;;;5126785;27;20529;-63
2022/10/11 06:39:34;;;;;;;0.40;0.30;;;16.70;99.90;;;;;;5131437;27;20456;-64
2022/10/11 06:42:05;;;;;;;0.43;0.30;;;16.60;99.90;;;;;;5120411;27;20513;-63
2022/10/11 06:44:36;;;;;;;0.70;0.40;;;16.60;99.90;;;;;;5136592;27;20456;-63
2022/10/11 06:47:08;;;;;;;1.23;0.60;;;16.50;99.90;;;;;;5136021;27;20464;-63
2022/10/11 06:49:38;;;;;;;0.40;0.40;;;16.50;99.90;;;;;;5126951;27;20981;-63
2022/10/11 06:52:11;;;;;;;0.50;0.40;;;16.40;99.90;;;;;;5139310;27;20754;-63
2022/10/11 06:54:41;;;;;;;0.33;0.23;;;16.40;99.90;;;;;;5133835;27;20461;-63
2022/10/11 06:57:14;;;;;;;1.43;0.70;;;16.30;99.90;;;;;;5127028;27;20477;-63
2022/10/11 06:59:44;;;;;;;0.50;0.30;;;16.20;99.90;;;;;;5129364;27;20464;-63
2022/10/11 07:02:15;;;;;;;0.43;0.40;;;16.20;99.90;;;;;;5138966;27;20452;-63
2022/10/11 07:04:46;;;;;;;0.43;0.30;;;16.20;99.90;;;;;;5131718;27;20822;-63
2022/10/11 07:07:18;;;;;;;0.50;0.40;;;16.20;99.90;;;;;;5140103;27;21092;-63
2022/10/11 07:09:49;;;;;;;0.90;0.40;;;16.30;99.90;;;;;;5145878;27;20502;-63
2022/10/11 07:12:20;;;;;;;0.40;0.23;;;16.40;99.90;;;;;;5138907;27;20513;-63
2022/10/11 07:14:50;;;;;;;1.07;0.30;;;16.40;99.90;;;;;;5143341;27;20510;-63
2022/10/11 07:17:21;;;;;;;0.47;0.30;;;16.40;99.90;;;;;;5127009;27;20484;-63
2022/10/11 07:19:52;;;;;;;0.93;0.50;;;16.40;99.90;;;;;;5137406;27;20458;-63
2022/10/11 07:22:24;;;;;;;0.83;0.50;;;16.40;99.90;;;;;;5122727;27;20524;-63
2022/10/11 07:24:55;;;;;;;0.40;0.20;;;16.40;99.90;;;;;;5139111;27;20437;-63
2022/10/11 07:27:26;;;;;;;0.50;0.20;;;16.40;99.90;;;;;;5130091;27;20486;-63
2022/10/11 07:29:57;;;;;;;0.40;0.30;;;16.40;99.90;;;;;;5141326;27;20461;-63
2022/10/11 07:32:27;;;;;;;0.40;0.20;;;16.40;99.90;;;;;;5127945;27;21373;-63
2022/10/11 07:34:59;;;;;;;0.30;0.20;;;16.40;99.90;;;;;;5126789;27;20473;-63
2022/10/11 07:37:31;;;;;;;0.40;0.30;;;16.40;99.90;;;;;;5117800;27;20480;-63
2022/10/11 07:40:02;;;;;;;1.40;0.40;;;16.30;99.90;;;;;;5130507;27;20465;-63
2022/10/11 07:42:34;;;;;;;0.50;0.20;;;16.30;99.90;;;;;;5129460;27;20489;-63
2022/10/11 07:45:06;;;;;;;1.43;0.67;;;16.30;99.90;;;;;;5119358;27;20518;-63
2022/10/11 07:47:36;;;;;;;0.50;0.40;;;16.40;99.90;;;;;;5140090;27;20465;-62
2022/10/11 07:50:08;;;;;;;0.40;0.40;;;16.40;99.90;;;;;;5128268;27;20455;-62
2022/10/11 07:52:44;;;;;;;0.40;0.20;;;16.30;99.90;;;;;;5130014;27;20428;-63
2022/10/11 07:55:14;;;;;;;0.57;0.47;;;16.30;99.90;;;;;;5135413;27;20452;-62
2022/10/11 07:57:45;;;;;;;0.40;0.40;;;16.20;99.90;;;;;;5126941;27;20641;-62
2022/10/11 08:00:16;;;;;;;2.00;0.93;;;16.10;99.90;;;;;;5144028;27;20479;-62
2022/10/11 08:02:47;;;;;;;1.03;0.57;;;16.10;99.90;;;;;;5127867;27;20454;-62
2022/10/11 08:05:18;;;;;;;0.73;0.40;;;16.00;99.90;;;;;;5138501;27;20487;-63
2022/10/11 08:07:51;;;;;;;0.63;0.50;;;15.90;99.90;;;;;;5134728;27;20484;-63
2022/10/11 08:10:21;;;;;;;3.50;0.77;;;15.80;99.90;;;;;;5116712;27;20506;-62
2022/10/11 08:12:52;;;;;;;1.03;0.50;;;15.70;99.90;;;;;;5133643;27;20464;-62
2022/10/11 08:15:23;;;;;;;1.67;0.60;;;15.70;99.90;;;;;;5143541;27;20556;-62
2022/10/11 08:17:54;;;;;;;6.10;0.47;;;15.60;99.90;;;;;;5137662;27;20503;-62
2022/10/11 08:20:25;;;;;;;1.30;1.20;;;15.60;99.90;;;;;;5137243;27;20461;-62
2022/10/11 08:22:57;;;;;;;1.07;0.60;;;15.60;99.90;;;;;;5126599;27;20450;-63
2022/10/11 08:25:28;;;;;;;0.97;0.80;;;15.60;99.90;;;;;;5122432;27;20459;-62
2022/10/11 08:27:59;;;;;;;0.90;0.70;;;15.60;99.90;;;;;;5134912;27;20467;-63
2022/10/11 08:30:30;;;;;;;2.20;0.90;;;15.50;99.90;;;;;;5137142;27;20461;-63
2022/10/11 08:33:00;;;;;;;1.03;0.47;;;15.50;99.90;;;;;;5135340;27;20929;-62
2022/10/11 08:35:38;;;;;;;1.80;0.63;;;15.40;99.90;;;;;;5132428;27;20529;-62
2022/10/11 08:38:10;;;;;;;0.70;0.60;;;15.40;99.90;;;;;;5140277;27;20505;-63
2022/10/11 08:40:47;;;;;;;1.53;0.70;;;15.40;99.90;;;;;;5131752;27;20521;-63
2022/10/11 08:43:37;;;;;;;5.03;1.00;;;15.30;99.90;;;;;;5139067;27;20438;-63
2022/10/11 08:46:09;;;;;;;1.70;1.17;;;15.30;99.90;;;;;;5132460;27;20460;-63
2022/10/11 08:48:42;;;;;;;2.10;0.83;;;15.30;99.90;;;;;;5142810;27;20452;-63
2022/10/11 08:51:21;;;;;;;1.97;0.80;;;15.30;99.90;;;;;;5128982;27;20453;-63
2022/10/11 08:53:59;;;;;;;0.60;0.60;;;15.30;99.90;;;;;;5139092;27;20548;-63
2022/10/11 08:56:38;;;;;;;2.30;0.80;;;15.30;99.90;;;;;;5130835;27;20463;-63
2022/10/11 08:59:21;;;;;;;5.37;1.43;;;15.20;99.90;;;;;;5135057;27;20544;-62
2022/10/11 09:02:01;;;;;;;1.53;0.70;;;15.20;99.90;;;;;;5138859;27;20457;-62
2022/10/11 09:04:32;;;;;;;2.63;0.90;;;15.10;99.90;;;;;;5131076;27;20632;-62
2022/10/11 09:07:09;;;;;;;4.03;1.17;;;15.00;99.90;;;;;;5139199;27;20484;-62
2022/10/11 09:09:56;;;;;;;9.87;2.07;;;15.00;99.90;;;;;;5134453;27;20937;-63
2022/10/11 09:12:40;;;;;;;1.57;1.20;;;15.00;99.90;;;;;;5121716;28;20530;-62
2022/10/11 09:15:21;;;;;;;2.20;0.90;;;14.90;99.90;;;;;;5119391;28;20449;-63
2022/10/11 09:18:15;;;;;;;4.63;1.73;;;14.80;99.90;;;;;;5136942;27;20448;-63
2022/10/11 09:21:10;;;;;;;5.40;1.40;;;14.80;99.90;;;;;;5119342;27;20620;-63
2022/10/11 09:23:59;;;;;;;2.50;1.30;;;14.80;99.90;;;;;;5140881;27;20437;-62
2022/10/11 09:26:38;;;;;;;3.80;1.20;;;14.70;99.90;;;;;;5141336;28;20572;-62
2022/10/11 09:29:17;;;;;;;3.33;1.17;;;14.70;99.90;;;;;;5133446;28;20525;-62
2022/10/11 09:31:49;;;;;;;4.13;1.07;;;14.60;99.90;;;;;;5121023;28;20464;-62
2022/10/11 09:34:23;;;;;;;4.57;1.50;;;14.60;99.90;;;;;;5134390;27;20457;-62
2022/10/11 09:37:01;;;;;;;1.83;0.60;;;14.50;99.90;;;;;;5129328;28;20462;-62
2022/10/11 09:39:34;;;;;;;2.93;1.30;;;14.40;99.90;;;;;;5137020;27;20605;-62
2022/10/11 09:42:08;;;;;;;2.20;1.10;;;14.40;99.90;;;;;;5132892;27;20501;-62
2022/10/11 09:44:41;;;;;;;2.57;1.40;;;14.40;99.90;;;;;;5114558;28;20479;-62
2022/10/11 09:47:17;;;;;;;1.60;1.00;;;14.30;99.90;;;;;;5136321;27;20503;-62
2022/10/11 09:49:53;;;;;;;6.23;1.57;;;14.30;99.90;;;;;;5138088;27;20476;-62
2022/10/11 09:52:25;;;;;;;3.40;1.00;;;14.30;99.90;;;;;;5127387;27;20544;-62
2022/10/11 09:54:57;;;;;;;2.23;1.20;;;14.30;99.90;;;;;;5132607;27;20454;-63
2022/10/11 09:57:31;;;;;;;1.10;0.83;;;14.30;99.90;;;;;;5135439;27;20544;-63
2022/10/11 10:00:06;;;;;;;5.73;1.37;;;14.30;99.90;;;;;;5131325;27;20982;-62
2022/10/11 10:02:45;;;;;;;1.17;0.70;;;14.30;99.90;;;;;;5134559;27;20865;-62
2022/10/11 10:05:19;;;;;;;3.90;1.50;;;14.40;99.90;;;;;;5138172;27;20462;-62
2022/10/11 10:08:21;;;;;;;0.73;0.73;;;14.40;99.90;;;;;;5140189;27;20556;-62
2022/10/11 10:11:01;;;;;;;7.23;1.80;;;14.40;99.90;;;;;;5137817;27;20489;-62
2022/10/11 10:13:45;;;;;;;3.60;0.83;;;14.30;99.90;;;;;;5134241;27;20556;-62
2022/10/11 10:16:25;;;;;;;5.23;1.30;;;14.30;99.90;;;;;;5117530;27;20427;-62
2022/10/11 10:18:58;;;;;;;2.13;1.10;;;14.20;99.90;;;;;;5144238;27;20509;-62
2022/10/11 10:21:32;;;;;;;1.60;1.20;;;14.10;99.90;;;;;;5135389;27;20506;-62
2022/10/11 10:24:06;;;;;;;1.20;0.83;;;14.00;99.90;;;;;;5138626;27;20458;-62
2022/10/11 10:26:38;;;;;;;1.37;0.90;;;14.10;99.90;;;;;;5131762;27;20465;-62
2022/10/11 10:29:19;;;;;;;1.33;0.90;;;14.10;99.90;;;;;;5133827;27;20521;-62
2022/10/11 10:31:56;;;;;;;2.73;1.10;;;14.00;99.90;;;;;;5119779;27;20465;-62
2022/10/11 10:34:56;;;;;;;2.50;1.10;;;13.90;99.90;;;;;;5121856;27;20457;-62
2022/10/11 10:37:30;;;;;;;3.20;0.93;;;13.70;99.90;;;;;;5128542;27;20516;-62
2022/10/11 10:40:06;;;;;;;3.90;0.87;;;13.70;99.90;;;;;;5140697;27;20476;-62
2022/10/11 10:42:37;;;;;;;1.97;1.37;;;13.70;99.90;;;;;;5124475;27;20508;-62
2022/10/11 10:45:17;;;;;;;2.83;0.80;;;13.70;99.90;;;;;;5132068;27;20478;-62
2022/10/11 10:48:09;;;;;;;2.83;1.00;;;13.70;99.90;;;;;;5130204;27;20472;-62
2022/10/11 10:50:49;;;;;;;2.60;1.30;;;13.50;99.90;;;;;;5134152;27;20469;-62
2022/10/11 10:53:28;;;;;;;1.40;1.00;;;13.50;99.90;;;;;;5120239;27;20571;-62
2022/10/11 10:56:05;;;;;;;3.10;1.50;;;13.40;99.90;;;;;;5121409;27;20456;-62
2022/10/11 10:58:55;;;;;;;1.57;0.70;;;13.40;99.90;;;;;;5133714;27;20453;-62
2022/10/11 11:01:31;;;;;;;3.50;1.80;;;13.30;99.90;;;;;;5131651;27;20453;-62
2022/10/11 11:04:09;;;;;;;2.00;0.93;;;13.30;99.90;;;;;;5134759;27;20486;-62
2022/10/11 11:06:48;;;;;;;1.63;1.03;;;13.20;99.90;;;;;;5132657;27;20482;-62
2022/10/11 11:09:34;;;;;;;3.40;1.47;;;13.10;99.90;;;;;;5137767;27;20909;-62
2022/10/11 11:12:18;;;;;;;4.07;1.03;;;13.00;99.90;;;;;;5131152;27;20526;-62
2022/10/11 11:14:56;;;;;;;3.40;1.47;;;13.00;99.90;;;;;;5119221;27;20498;-62
2022/10/11 11:17:37;;;;;;;6.70;1.53;;;13.00;99.90;;;;;;5119187;27;20538;-62
2022/10/11 11:20:25;;;;;;;3.17;0.93;;;12.90;99.90;;;;;;5137937;27;20493;-62
2022/10/11 11:23:07;;;;;;;1.70;1.00;;;12.90;99.90;;;;;;5136583;27;20534;-62
2022/10/11 11:25:47;;;;;;;0.97;0.73;;;12.90;99.90;;;;;;5122562;27;20491;-62
2022/10/11 11:28:42;;;;;;;2.50;1.10;;;12.80;99.90;;;;;;5127228;27;20453;-62
2022/10/11 11:31:23;;;;;;;4.37;1.20;;;12.80;99.90;;;;;;5134877;27;20464;-62
2022/10/11 11:34:05;;;;;;;3.17;1.10;;;12.80;99.90;;;;;;5118973;27;20462;-62
2022/10/11 11:36:42;;;;;;;3.83;1.40;;;12.70;99.90;;;;;;5125732;27;20461;-62
2022/10/11 11:39:17;;;;;;;1.13;0.93;;;12.70;99.90;;;;;;5137942;27;20480;-62
2022/10/11 11:41:54;;;;;;;5.20;1.13;;;12.60;99.90;;;;;;5123545;27;20883;-62
2022/10/11 11:44:31;;;;;;;2.97;1.07;;;12.60;99.90;;;;;;5128038;27;20462;-62
2022/10/11 11:47:05;;;;;;;7.53;1.40;;;12.60;99.90;;;;;;5143313;27;20448;-62
2022/10/11 11:49:39;;;;;;;2.00;1.10;;;12.40;99.90;;;;;;5144515;27;20598;-62
2022/10/11 11:52:20;;;;;;;4.10;1.27;;;12.30;99.90;;;;;;5144015;27;21332;-62
2022/10/11 11:54:56;;;;;;;5.67;1.53;;;12.30;99.90;;;;;;5144176;27;20478;-62
2022/10/11 11:57:47;;;;;;;2.20;1.10;;;12.20;99.90;;;;;;5143462;27;20447;-62
2022/10/11 12:00:20;;;;;;;5.77;1.50;;;12.00;99.90;;;;;;5140861;27;20509;-62
2022/10/11 12:02:54;;;;;;;1.00;0.90;;;12.00;99.90;;;;;;5143930;27;20844;-62
2022/10/11 12:05:29;;;;;;;3.40;1.37;;;12.00;99.90;;;;;;5129833;27;20769;-63
2022/10/11 12:08:04;;;;;;;1.77;0.87;;;11.90;99.90;;;;;;5143805;27;20480;-62
2022/10/11 12:10:38;;;;;;;3.77;1.20;;;11.90;99.90;;;;;;5144365;27;20448;-62
2022/10/11 12:13:21;;;;;;;3.03;0.80;;;11.90;99.90;;;;;;5130672;27;20457;-62
2022/10/11 12:16:02;;;;;;;1.77;1.23;;;11.80;99.90;;;;;;5134374;27;20486;-62
2022/10/11 12:18:35;;;;;;;3.93;1.50;;;11.60;99.90;;;;;;5129004;27;20582;-62
2022/10/11 12:21:27;;;;;;;6.20;1.63;;;11.60;99.90;;;;;;5138614;27;20950;-62
2022/10/11 12:23:59;;;;;;;1.60;1.30;;;11.60;99.90;;;;;;5138794;27;20448;-62
2022/10/11 12:26:40;;;;;;;2.03;1.10;;;11.50;99.90;;;;;;5128252;27;20602;-62
2022/10/11 12:29:45;;;;;;;3.40;1.30;;;11.50;99.90;;;;;;5138579;27;21189;-61
2022/10/11 12:32:48;;;;;;;3.77;1.33;;;11.40;99.90;;;;;;5136262;27;20490;-62
2022/10/11 12:35:41;;;;;;;7.70;1.00;;;11.40;99.90;;;;;;5129422;27;20471;-62
2022/10/11 12:38:22;;;;;;;1.63;0.93;;;11.40;99.90;;;;;;5136918;27;20521;-62
2022/10/11 12:40:55;;;;;;;1.63;0.73;;;11.30;99.90;;;;;;5132813;27;20559;-62
2022/10/11 12:44:06;;;;;;;4.10;1.07;;;11.30;99.90;;;;;;5138140;27;20468;-62
2022/10/11 12:47:14;;;;;;;1.50;0.90;;;11.20;99.90;;;;;;5111988;27;20969;-62
2022/10/11 12:49:59;;;;;;;1.00;0.80;;;11.20;99.90;;;;;;5130918;27;20518;-62
2022/10/11 12:52:39;;;;;;;3.73;1.07;;;11.20;99.90;;;;;;5137799;27;20461;-61
2022/10/11 12:55:36;;;;;;;1.43;1.00;;;11.20;99.90;;;;;;5134816;27;20452;-61
2022/10/11 12:58:30;;;;;;;1.37;1.27;;;11.20;99.90;;;;;;5126138;27;20552;-61
2022/10/11 13:01:20;;;;;;;2.40;1.40;;;11.20;99.90;;;;;;5133319;27;20563;-61
2022/10/11 13:03:59;;;;;;;2.20;1.13;;;11.10;99.90;;;;;;5130747;27;20550;-62
2022/10/11 13:06:33;;;;;;;3.47;2.00;;;11.00;99.90;;;;;;5132059;27;20599;-61
2022/10/11 13:09:12;;;;;;;1.90;1.20;;;11.00;99.90;;;;;;5122817;27;20534;-61
2022/10/11 13:11:49;;;;;;;1.67;1.40;;;11.00;99.90;;;;;;5125423;27;20836;-61
2022/10/11 13:14:22;;;;;;;6.90;1.70;;;11.00;99.90;;;;;;5122733;27;20525;-62
2022/10/11 13:16:59;;;;;;;2.43;0.90;;;11.00;99.90;;;;;;5142465;27;20462;-62
2022/10/11 13:19:31;;;;;;;1.33;1.00;;;11.00;99.90;;;;;;5142196;27;20444;-62
2022/10/11 13:22:04;;;;;;;1.53;1.20;;;11.00;99.90;;;;;;5142121;27;20472;-62
2022/10/11 13:24:40;;;;;;;3.40;1.03;;;10.90;99.90;;;;;;5142763;27;20494;-62
2022/10/11 13:27:20;;;;;;;1.70;0.80;;;10.90;99.90;;;;;;5142319;27;20488;-62
2022/10/11 13:29:53;;;;;;;3.03;0.90;;;10.80;99.90;;;;;;5123548;27;20503;-62
2022/10/11 13:32:28;;;;;;;2.13;1.10;;;10.80;99.90;;;;;;5122095;28;20510;-62